sensor_id;sensor_type;location;lat;lon;timestamp;pressure;altitude;pressure_sealevel;temperature;humidity
77537;BME280;67783;51.656;16.106;2023-07-29T00:02:00;101035.95;;;21.48;64.03
77537;BME280;67783;51.656;16.106;2023-07-29T00:05:05;101028.78;;;21.47;65.60
77537;BME280;67783;51.656;16.106;2023-07-29T00:08:07;101027.57;;;21.49;63.91
77537;BME280;67783;51.656;16.106;2023-07-29T00:11:09;101020.43;;;21.48;64.48
77537;BME280;67783;51.656;16.106;2023-07-29T00:14:10;101028.42;;;21.50;63.88
77537;BME280;67783;51.656;16.106;2023-07-29T00:17:12;101025.90;;;21.48;64.24
77537;BME280;67783;51.656;16.106;2023-07-29T00:20:13;101024.68;;;21.51;63.90
77537;BME280;67783;51.656;16.106;2023-07-29T00:23:17;101028.10;;;21.53;64.07
77537;BME280;67783;51.656;16.106;2023-07-29T00:26:20;101033.55;;;21.53;65.60
77537;BME280;67783;51.656;16.106;2023-07-29T00:29:22;101035.92;;;21.56;63.95
77537;BME280;67783;51.656;16.106;2023-07-29T00:32:24;101031.48;;;21.55;64.51
77537;BME280;67783;51.656;16.106;2023-07-29T00:35:26;101032.84;;;21.59;63.92
77537;BME280;67783;51.656;16.106;2023-07-29T00:38:28;101027.38;;;21.59;64.12
77537;BME280;67783;51.656;16.106;2023-07-29T00:41:29;101025.34;;;21.61;63.77
77537;BME280;67783;51.656;16.106;2023-07-29T00:44:31;101018.54;;;21.57;63.95
77537;BME280;67783;51.656;16.106;2023-07-29T00:47:36;101019.91;;;21.53;65.17
77537;BME280;67783;51.656;16.106;2023-07-29T00:50:37;101020.94;;;21.52;63.91
77537;BME280;67783;51.656;16.106;2023-07-29T00:53:39;101020.43;;;21.48;64.36
77537;BME280;67783;51.656;16.106;2023-07-29T00:56:41;101021.28;;;21.49;63.91
77537;BME280;67783;51.656;16.106;2023-07-29T00:59:43;101018.22;;;21.44;64.22
77537;BME280;67783;51.656;16.106;2023-07-29T01:02:45;101012.41;;;21.47;63.93
77537;BME280;67783;51.656;16.106;2023-07-29T01:09:03;101025.71;;;21.42;64.42
77537;BME280;67783;51.656;16.106;2023-07-29T01:12:12;101002.90;;;21.35;64.10
77537;BME280;67783;51.656;16.106;2023-07-29T01:15:28;101013.30;;;21.31;64.26
77537;BME280;67783;51.656;16.106;2023-07-29T01:18:32;101009.39;;;21.26;64.80
77537;BME280;67783;51.656;16.106;2023-07-29T01:21:37;101001.40;;;21.24;64.27
77537;BME280;67783;51.656;16.106;2023-07-29T01:24:39;101013.84;;;21.18;64.54
77537;BME280;67783;51.656;16.106;2023-07-29T01:27:52;101010.42;;;21.16;65.67
77537;BME280;67783;51.656;16.106;2023-07-29T01:34:17;101016.39;;;21.12;64.60
77537;BME280;67783;51.656;16.106;2023-07-29T01:37:24;101014.34;;;21.06;65.26
77537;BME280;67783;51.656;16.106;2023-07-29T01:40:27;101023.52;;;21.05;64.57
77537;BME280;67783;51.656;16.106;2023-07-29T01:43:30;101006.66;;;21.01;64.88
77537;BME280;67783;51.656;16.106;2023-07-29T01:46:44;101014.18;;;20.99;66.18
77537;BME280;67783;51.656;16.106;2023-07-29T01:49:45;101007.68;;;21.00;64.73
77537;BME280;67783;51.656;16.106;2023-07-29T01:52:47;101005.30;;;20.97;65.19
77537;BME280;67783;51.656;16.106;2023-07-29T01:55:48;101005.30;;;20.97;64.70
77537;BME280;67783;51.656;16.106;2023-07-29T01:58:50;101002.74;;;20.96;65.02
77537;BME280;67783;51.656;16.106;2023-07-29T02:01:51;101003.95;;;20.93;64.75
77537;BME280;67783;51.656;16.106;2023-07-29T02:04:53;101008.54;;;20.93;64.98
77537;BME280;67783;51.656;16.106;2023-07-29T02:07:58;101008.03;;;20.89;66.36
77537;BME280;67783;51.656;16.106;2023-07-29T02:10:59;101002.08;;;20.86;65.00
77537;BME280;67783;51.656;16.106;2023-07-29T02:14:01;100997.99;;;20.82;65.57
77537;BME280;67783;51.656;16.106;2023-07-29T02:17:02;101001.58;;;20.82;65.06
77537;BME280;67783;51.656;16.106;2023-07-29T02:20:05;101005.66;;;20.78;65.41
77537;BME280;67783;51.656;16.106;2023-07-29T02:23:07;101005.31;;;20.81;65.11
77537;BME280;67783;51.656;16.106;2023-07-29T02:26:08;101010.26;;;20.78;65.35
77537;BME280;67783;51.656;16.106;2023-07-29T02:29:13;101005.31;;;20.73;67.04
77537;BME280;67783;51.656;16.106;2023-07-29T02:32:14;101009.91;;;20.72;65.40
77537;BME280;67783;51.656;16.106;2023-07-29T02:35:16;101001.23;;;20.69;65.93
77537;BME280;67783;51.656;16.106;2023-07-29T02:38:18;101007.02;;;20.74;65.36
77537;BME280;67783;51.656;16.106;2023-07-29T02:41:19;101008.03;;;20.73;65.64
77537;BME280;67783;51.656;16.106;2023-07-29T02:44:21;101006.17;;;20.73;65.30
77537;BME280;67783;51.656;16.106;2023-07-29T02:47:22;101021.66;;;20.73;65.53
77537;BME280;67783;51.656;16.106;2023-07-29T02:50:27;101012.13;;;20.69;66.80
77537;BME280;67783;51.656;16.106;2023-07-29T02:53:29;101015.20;;;20.66;65.56
77537;BME280;67783;51.656;16.106;2023-07-29T02:56:31;101018.07;;;20.56;66.33
77537;BME280;67783;51.656;16.106;2023-07-29T02:59:32;101017.55;;;20.53;65.83
77537;BME280;67783;51.656;16.106;2023-07-29T03:02:34;101017.55;;;20.53;66.14
77537;BME280;67783;51.656;16.106;2023-07-29T03:05:35;101020.63;;;20.58;65.73
77537;BME280;67783;51.656;16.106;2023-07-29T03:08:39;101020.63;;;20.58;66.00
77537;BME280;67783;51.656;16.106;2023-07-29T03:11:43;101015.34;;;20.48;67.63
77537;BME280;67783;51.656;16.106;2023-07-29T03:14:47;101020.95;;;20.55;66.01
77537;BME280;67783;51.656;16.106;2023-07-29T03:17:49;101028.11;;;20.56;66.48
77537;BME280;67783;51.656;16.106;2023-07-29T03:20:51;101022.32;;;20.59;65.98
77537;BME280;67783;51.656;16.106;2023-07-29T03:23:53;101027.61;;;20.60;66.23
77537;BME280;67783;51.656;16.106;2023-07-29T03:27:04;101025.55;;;20.62;67.71
77537;BME280;67783;51.656;16.106;2023-07-29T03:30:07;101025.05;;;20.67;66.03
77537;BME280;67783;51.656;16.106;2023-07-29T03:33:08;101024.74;;;20.70;66.41
77537;BME280;67783;51.656;16.106;2023-07-29T03:36:10;101028.83;;;20.74;65.91
77537;BME280;67783;51.656;16.106;2023-07-29T03:39:12;101020.66;;;20.74;66.18
77537;BME280;67783;51.656;16.106;2023-07-29T03:42:13;101029.84;;;20.81;65.84
77537;BME280;67783;51.656;16.106;2023-07-29T03:45:15;101026.95;;;20.83;65.97
77537;BME280;67783;51.656;16.106;2023-07-29T03:48:20;101022.67;;;20.88;67.04
77537;BME280;67783;51.656;16.106;2023-07-29T03:51:21;101028.12;;;20.96;65.75
77537;BME280;67783;51.656;16.106;2023-07-29T03:54:25;101027.62;;;21.01;66.00
77537;BME280;67783;51.656;16.106;2023-07-29T03:57:27;101036.29;;;21.53;65.18
77537;BME280;67783;51.656;16.106;2023-07-29T04:00:30;101038.69;;;22.34;63.40
77537;BME280;67783;51.656;16.106;2023-07-29T04:03:40;101036.79;;;22.65;62.14
77537;BME280;67783;51.656;16.106;2023-07-29T04:06:42;101039.50;;;22.73;62.41
77537;BME280;67783;51.656;16.106;2023-07-29T04:09:43;101040.77;;;22.85;62.18
77537;BME280;67783;51.656;16.106;2023-07-29T04:12:45;101049.11;;;23.07;62.10
77537;BME280;67783;51.656;16.106;2023-07-29T04:15:46;101041.61;;;23.23;61.73
77537;BME280;67783;51.656;16.106;2023-07-29T04:18:48;101046.34;;;23.52;61.50
77537;BME280;67783;51.656;16.106;2023-07-29T04:21:49;101050.69;;;23.76;60.85
77537;BME280;67783;51.656;16.106;2023-07-29T04:24:55;101053.12;;;24.00;59.00
77537;BME280;67783;51.656;16.106;2023-07-29T04:27:56;101053.69;;;24.25;59.94
77537;BME280;67783;51.656;16.106;2023-07-29T04:30:59;101018.25;;;24.23;59.03
77537;BME280;67783;51.656;16.106;2023-07-29T04:34:01;101052.12;;;24.73;59.05
77537;BME280;67783;51.656;16.106;2023-07-29T04:37:04;101053.87;;;24.95;58.31
77537;BME280;67783;51.656;16.106;2023-07-29T04:40:15;101043.06;;;25.15;56.07
77537;BME280;67783;51.656;16.106;2023-07-29T04:43:52;101046.66;;;25.43;57.53
77537;BME280;67783;51.656;16.106;2023-07-29T04:46:54;101043.25;;;25.62;56.32
77537;BME280;67783;51.656;16.106;2023-07-29T04:49:56;101046.80;;;25.91;56.69
77537;BME280;67783;51.656;16.106;2023-07-29T04:52:57;101042.05;;;26.12;55.89
77537;BME280;67783;51.656;16.106;2023-07-29T04:55:59;101040.64;;;26.30;56.00
77537;BME280;67783;51.656;16.106;2023-07-29T04:59:01;101047.70;;;26.45;55.47
77537;BME280;67783;51.656;16.106;2023-07-29T05:02:07;101040.54;;;26.57;53.23
77537;BME280;67783;51.656;16.106;2023-07-29T05:05:08;101050.30;;;26.67;55.13
77537;BME280;67783;51.656;16.106;2023-07-29T05:08:10;101049.42;;;26.59;54.43
77537;BME280;67783;51.656;16.106;2023-07-29T05:11:11;101041.36;;;26.51;55.16
77537;BME280;67783;51.656;16.106;2023-07-29T05:14:14;101052.98;;;26.47;54.68
77537;BME280;67783;51.656;16.106;2023-07-29T05:17:16;101055.29;;;26.43;55.12
77537;BME280;67783;51.656;16.106;2023-07-29T05:20:17;101051.26;;;26.33;54.98
77537;BME280;67783;51.656;16.106;2023-07-29T05:23:22;101046.55;;;26.20;53.79
77537;BME280;67783;51.656;16.106;2023-07-29T05:26:24;101049.22;;;26.13;55.28
77537;BME280;67783;51.656;16.106;2023-07-29T05:29:26;101051.95;;;26.07;55.06
77537;BME280;67783;51.656;16.106;2023-07-29T05:32:27;101053.22;;;26.04;55.43
77537;BME280;67783;51.656;16.106;2023-07-29T05:35:30;101054.02;;;25.98;55.37
77537;BME280;67783;51.656;16.106;2023-07-29T05:38:42;101056.07;;;25.90;54.53
77537;BME280;67783;51.656;16.106;2023-07-29T05:41:44;101058.36;;;25.80;55.62
77537;BME280;67783;51.656;16.106;2023-07-29T05:44:48;101044.92;;;25.63;55.49
77537;BME280;67783;51.656;16.106;2023-07-29T05:47:49;101059.29;;;25.59;55.86
77537;BME280;67783;51.656;16.106;2023-07-29T05:50:51;101057.89;;;25.48;55.95
77537;BME280;67783;51.656;16.106;2023-07-29T05:54:03;101054.89;;;25.43;55.74
77537;BME280;67783;51.656;16.106;2023-07-29T05:57:05;101055.74;;;25.44;56.29
77537;BME280;67783;51.656;16.106;2023-07-29T06:00:08;101054.03;;;25.43;56.13
77537;BME280;67783;51.656;16.106;2023-07-29T06:03:09;101053.22;;;25.42;56.31
77537;BME280;67783;51.656;16.106;2023-07-29T06:06:11;101052.55;;;25.40;56.29
77537;BME280;67783;51.656;16.106;2023-07-29T06:09:12;101049.40;;;25.43;56.40
77537;BME280;67783;51.656;16.106;2023-07-29T06:12:14;101048.36;;;25.44;56.41
77537;BME280;67783;51.656;16.106;2023-07-29T06:15:19;101054.03;;;25.43;56.01
77537;BME280;67783;51.656;16.106;2023-07-29T06:18:24;101056.60;;;25.44;56.37
77537;BME280;67783;51.656;16.106;2023-07-29T06:21:26;101051.92;;;25.38;56.38
77537;BME280;67783;51.656;16.106;2023-07-29T06:24:27;101054.86;;;25.37;56.51
77537;BME280;67783;51.656;16.106;2023-07-29T06:27:29;101061.60;;;25.34;56.59
77537;BME280;67783;51.656;16.106;2023-07-29T06:30:42;101053.55;;;25.33;56.62
77537;BME280;67783;51.656;16.106;2023-07-29T06:33:44;101060.15;;;25.38;56.66
77537;BME280;67783;51.656;16.106;2023-07-29T06:36:45;101050.66;;;25.41;56.77
77537;BME280;67783;51.656;16.106;2023-07-29T06:39:47;101050.70;;;25.47;56.59
77537;BME280;67783;51.656;16.106;2023-07-29T06:42:48;101056.18;;;25.47;56.71
77537;BME280;67783;51.656;16.106;2023-07-29T06:46:00;101052.39;;;25.48;56.64
77537;BME280;67783;51.656;16.106;2023-07-29T06:49:01;101057.33;;;25.53;56.59
77537;BME280;67783;51.656;16.106;2023-07-29T06:52:03;101059.19;;;25.52;56.59
77537;BME280;67783;51.656;16.106;2023-07-29T06:55:08;101062.22;;;25.57;56.54
77537;BME280;67783;51.656;16.106;2023-07-29T06:58:11;101054.62;;;25.59;56.50
77537;BME280;67783;51.656;16.106;2023-07-29T07:01:23;101047.48;;;25.65;56.30
77537;BME280;67783;51.656;16.106;2023-07-29T07:04:33;101040.75;;;25.67;56.34
77537;BME280;67783;51.656;16.106;2023-07-29T07:07:38;101045.18;;;25.68;56.36
77537;BME280;67783;51.656;16.106;2023-07-29T07:10:54;101039.49;;;25.70;56.02
77537;BME280;67783;51.656;16.106;2023-07-29T07:14:04;101034.02;;;25.77;56.30
77537;BME280;67783;51.656;16.106;2023-07-29T07:17:15;101032.57;;;25.81;56.24
77537;BME280;67783;51.656;16.106;2023-07-29T07:20:20;101027.31;;;25.86;56.49
77537;BME280;67783;51.656;16.106;2023-07-29T07:23:25;101031.80;;;25.93;56.13
77537;BME280;67783;51.656;16.106;2023-07-29T07:26:26;101029.95;;;26.00;55.98
77537;BME280;67783;51.656;16.106;2023-07-29T07:29:36;101021.06;;;26.05;55.90
77537;BME280;67783;51.656;16.106;2023-07-29T07:32:59;101020.02;;;26.06;55.87
77537;BME280;67783;51.656;16.106;2023-07-29T07:36:16;101019.59;;;26.09;55.77
77537;BME280;67783;51.656;16.106;2023-07-29T07:39:29;101004.62;;;26.11;55.37
77537;BME280;67783;51.656;16.106;2023-07-29T07:42:30;101004.63;;;26.18;55.55
77537;BME280;67783;51.656;16.106;2023-07-29T07:45:39;101004.90;;;26.23;55.38
77537;BME280;67783;51.656;16.106;2023-07-29T07:48:51;100996.88;;;26.28;54.77
77537;BME280;67783;51.656;16.106;2023-07-29T07:51:52;100998.40;;;26.37;55.21
77537;BME280;67783;51.656;16.106;2023-07-29T07:54:54;100984.04;;;26.42;54.83
77537;BME280;67783;51.656;16.106;2023-07-29T07:57:59;100988.72;;;26.54;54.85
77537;BME280;67783;51.656;16.106;2023-07-29T08:01:04;100987.44;;;26.63;54.53
77537;BME280;67783;51.656;16.106;2023-07-29T08:04:11;100982.38;;;26.74;53.53
77537;BME280;67783;51.656;16.106;2023-07-29T08:07:13;100991.73;;;26.86;54.27
77537;BME280;67783;51.656;16.106;2023-07-29T08:10:15;100987.08;;;26.93;53.64
77537;BME280;67783;51.656;16.106;2023-07-29T08:13:17;100989.21;;;27.04;53.75
77537;BME280;67783;51.656;16.106;2023-07-29T08:16:18;100987.30;;;27.11;53.45
77537;BME280;67783;51.656;16.106;2023-07-29T08:19:20;100988.55;;;27.22;53.41
77537;BME280;67783;51.656;16.106;2023-07-29T08:22:21;100988.32;;;27.36;53.03
77537;BME280;67783;51.656;16.106;2023-07-29T08:25:26;100990.86;;;27.51;51.19
77537;BME280;67783;51.656;16.106;2023-07-29T08:28:37;100985.73;;;27.68;52.47
77537;BME280;67783;51.656;16.106;2023-07-29T08:31:39;100995.22;;;27.85;51.94
77537;BME280;67783;51.656;16.106;2023-07-29T08:34:40;100986.46;;;28.01;51.79
77537;BME280;67783;51.656;16.106;2023-07-29T08:37:41;100987.73;;;28.12;51.40
77537;BME280;67783;51.656;16.106;2023-07-29T08:41:04;100990.25;;;28.13;48.71
77537;BME280;67783;51.656;16.106;2023-07-29T08:47:13;100969.49;;;28.49;50.46
77537;BME280;67783;51.656;16.106;2023-07-29T08:50:18;100974.02;;;28.68;47.93
77537;BME280;67783;51.656;16.106;2023-07-29T08:53:20;100972.89;;;28.82;49.70
77537;BME280;67783;51.656;16.106;2023-07-29T08:56:23;100971.13;;;28.87;49.12
77537;BME280;67783;51.656;16.106;2023-07-29T08:59:26;100965.50;;;29.01;49.23
77537;BME280;67783;51.656;16.106;2023-07-29T09:02:28;100975.30;;;28.97;48.92
77537;BME280;67783;51.656;16.106;2023-07-29T09:05:38;100959.41;;;28.92;46.53
77537;BME280;67783;51.656;16.106;2023-07-29T09:08:40;100960.44;;;28.98;49.00
77537;BME280;67783;51.656;16.106;2023-07-29T09:11:42;100963.41;;;28.96;48.29
77537;BME280;67783;51.656;16.106;2023-07-29T09:14:44;100951.70;;;29.01;48.69
77537;BME280;67783;51.656;16.106;2023-07-29T09:17:46;100946.56;;;29.04;48.21
77537;BME280;67783;51.656;16.106;2023-07-29T09:20:48;100950.95;;;29.12;48.31
77537;BME280;67783;51.656;16.106;2023-07-29T09:23:50;100951.36;;;29.15;47.70
77537;BME280;67783;51.656;16.106;2023-07-29T09:26:55;100948.91;;;29.25;45.08
77537;BME280;67783;51.656;16.106;2023-07-29T09:29:56;100950.63;;;29.45;47.13
77537;BME280;67783;51.656;16.106;2023-07-29T09:32:59;100944.13;;;29.57;45.97
77537;BME280;67783;51.656;16.106;2023-07-29T09:36:01;100941.89;;;29.66;46.57
77537;BME280;67783;51.656;16.106;2023-07-29T09:39:02;100940.98;;;29.72;45.86
77537;BME280;67783;51.656;16.106;2023-07-29T09:42:20;100927.70;;;29.80;42.85
77537;BME280;67783;51.656;16.106;2023-07-29T09:45:23;100929.23;;;29.95;45.67
77537;BME280;67783;51.656;16.106;2023-07-29T09:48:25;100921.94;;;30.00;45.17
77537;BME280;67783;51.656;16.106;2023-07-29T09:51:38;100929.53;;;30.05;45.55
77537;BME280;67783;51.656;16.106;2023-07-29T09:54:57;100926.55;;;30.06;45.30
77537;BME280;67783;51.656;16.106;2023-07-29T09:58:04;100927.37;;;30.07;44.46
77537;BME280;67783;51.656;16.106;2023-07-29T10:01:29;100916.92;;;30.09;42.10
77537;BME280;67783;51.656;16.106;2023-07-29T10:04:41;100910.36;;;30.21;44.93
77537;BME280;67783;51.656;16.106;2023-07-29T10:11:21;100896.30;;;30.23;43.11
77537;BME280;67783;51.656;16.106;2023-07-29T10:17:52;100889.81;;;30.29;44.02
77537;BME280;67783;51.656;16.106;2023-07-29T10:21:08;100888.13;;;30.40;42.00
77537;BME280;67783;51.656;16.106;2023-07-29T10:24:30;100882.91;;;30.50;40.24
77537;BME280;67783;51.656;16.106;2023-07-29T10:27:42;100881.13;;;30.55;43.01
77537;BME280;67783;51.656;16.106;2023-07-29T10:30:41;100888.77;;;30.42;42.72
77537;BME280;67783;51.656;16.106;2023-07-29T10:33:52;100886.12;;;30.35;40.27
77537;BME280;67783;51.656;16.106;2023-07-29T10:36:55;100878.18;;;30.39;42.86
77537;BME280;67783;51.656;16.106;2023-07-29T10:39:57;100869.88;;;30.39;42.28
77537;BME280;67783;51.656;16.106;2023-07-29T10:43:03;100868.32;;;30.43;42.80
77537;BME280;67783;51.656;16.106;2023-07-29T10:49:23;100861.51;;;30.57;40.39
77537;BME280;67783;51.656;16.106;2023-07-29T10:52:39;100864.63;;;30.60;40.92
77537;BME280;67783;51.656;16.106;2023-07-29T10:55:44;100866.81;;;30.70;40.71
77537;BME280;67783;51.656;16.106;2023-07-29T10:58:47;100851.05;;;30.82;38.27
77537;BME280;67783;51.656;16.106;2023-07-29T11:01:56;100847.21;;;31.06;41.07
77537;BME280;67783;51.656;16.106;2023-07-29T11:05:04;100835.16;;;31.24;40.51
77537;BME280;67783;51.656;16.106;2023-07-29T11:08:18;100845.47;;;31.40;37.93
77537;BME280;67783;51.656;16.106;2023-07-29T11:11:20;100844.16;;;31.43;40.32
77537;BME280;67783;51.656;16.106;2023-07-29T11:14:22;100842.47;;;31.42;40.06
77537;BME280;67783;51.656;16.106;2023-07-29T11:17:23;100829.91;;;31.51;40.32
77537;BME280;67783;51.656;16.106;2023-07-29T11:20:27;100824.09;;;31.52;40.14
77537;BME280;67783;51.656;16.106;2023-07-29T11:23:37;100814.94;;;31.52;38.42
77537;BME280;67783;51.656;16.106;2023-07-29T11:26:46;100811.24;;;31.46;39.92
77537;BME280;67783;51.656;16.106;2023-07-29T11:33:05;100821.33;;;31.12;38.36
77537;BME280;67783;51.656;16.106;2023-07-29T11:36:31;100839.97;;;30.94;41.00
77537;BME280;67783;51.656;16.106;2023-07-29T11:39:41;100864.52;;;30.44;43.24
77537;BME280;67783;51.656;16.106;2023-07-29T11:42:44;100858.75;;;29.86;46.13
77537;BME280;67783;51.656;16.106;2023-07-29T11:45:46;100850.81;;;29.41;45.58
77537;BME280;67783;51.656;16.106;2023-07-29T11:48:47;100839.05;;;29.09;47.27
77537;BME280;67783;51.656;16.106;2023-07-29T11:51:49;100824.54;;;28.96;47.20
77537;BME280;67783;51.656;16.106;2023-07-29T11:54:51;100817.41;;;28.88;47.92
77537;BME280;67783;51.656;16.106;2023-07-29T11:58:04;100818.35;;;28.82;51.55
77537;BME280;67783;51.656;16.106;2023-07-29T12:01:05;100808.53;;;28.86;48.82
77537;BME280;67783;51.656;16.106;2023-07-29T12:04:09;100800.09;;;28.81;50.34
77537;BME280;67783;51.656;16.106;2023-07-29T12:07:13;100791.18;;;28.79;49.59
77537;BME280;67783;51.656;16.106;2023-07-29T12:10:17;100779.70;;;28.82;50.42
77537;BME280;67783;51.656;16.106;2023-07-29T12:13:24;100779.63;;;28.88;52.52
77537;BME280;67783;51.656;16.106;2023-07-29T12:16:26;100776.24;;;29.05;49.98
77537;BME280;67783;51.656;16.106;2023-07-29T12:19:34;100785.13;;;29.25;50.03
77537;BME280;67783;51.656;16.106;2023-07-29T12:22:36;100783.97;;;29.51;49.66
77537;BME280;67783;51.656;16.106;2023-07-29T12:25:38;100773.11;;;29.67;49.16
77537;BME280;67783;51.656;16.106;2023-07-29T12:28:47;100761.50;;;29.77;48.53
77537;BME280;67783;51.656;16.106;2023-07-29T12:32:00;100767.02;;;29.77;48.38
77537;BME280;67783;51.656;16.106;2023-07-29T12:35:03;100762.56;;;29.76;48.18
77537;BME280;67783;51.656;16.106;2023-07-29T12:38:20;100760.17;;;29.79;48.49
77537;BME280;67783;51.656;16.106;2023-07-29T12:41:22;100748.80;;;29.88;48.01
77537;BME280;67783;51.656;16.106;2023-07-29T12:44:25;100746.40;;;29.91;46.88
77537;BME280;67783;51.656;16.106;2023-07-29T12:47:37;100743.15;;;29.94;44.39
77537;BME280;67783;51.656;16.106;2023-07-29T12:50:38;100752.57;;;30.05;45.77
77537;BME280;67783;51.656;16.106;2023-07-29T12:53:46;100748.01;;;30.10;44.63
77537;BME280;67783;51.656;16.106;2023-07-29T12:57:04;100748.12;;;30.15;42.55
77537;BME280;67783;51.656;16.106;2023-07-29T13:00:14;100742.72;;;30.20;44.43
77537;BME280;67783;51.656;16.106;2023-07-29T13:03:21;100731.30;;;30.17;44.09
77537;BME280;67783;51.656;16.106;2023-07-29T13:06:30;100732.02;;;30.12;41.67
77537;BME280;67783;51.656;16.106;2023-07-29T13:09:32;100730.09;;;30.13;43.81
77537;BME280;67783;51.656;16.106;2023-07-29T13:12:34;100731.66;;;30.09;43.12
77537;BME280;67783;51.656;16.106;2023-07-29T13:15:35;100729.25;;;30.12;43.11
77537;BME280;67783;51.656;16.106;2023-07-29T13:18:37;100730.81;;;30.08;42.92
77537;BME280;67783;51.656;16.106;2023-07-29T13:21:39;100732.50;;;30.09;43.09
77537;BME280;67783;51.656;16.106;2023-07-29T13:24:44;100728.04;;;30.08;42.89
77537;BME280;67783;51.656;16.106;2023-07-29T13:27:53;100719.16;;;30.06;41.12
77537;BME280;67783;51.656;16.106;2023-07-29T13:30:56;100720.95;;;30.12;42.40
77537;BME280;67783;51.656;16.106;2023-07-29T13:34:01;100735.27;;;30.21;41.96
77537;BME280;67783;51.656;16.106;2023-07-29T13:37:17;100729.25;;;30.24;40.70
77537;BME280;67783;51.656;16.106;2023-07-29T13:40:25;100726.38;;;30.31;42.26
77537;BME280;67783;51.656;16.106;2023-07-29T13:43:35;100737.91;;;30.28;42.30
77537;BME280;67783;51.656;16.106;2023-07-29T13:46:40;100737.32;;;30.25;40.17
77537;BME280;67783;51.656;16.106;2023-07-29T13:49:44;100728.89;;;30.20;42.07
77537;BME280;67783;51.656;16.106;2023-07-29T13:52:49;100727.69;;;30.16;42.09
77537;BME280;67783;51.656;16.106;2023-07-29T13:56:05;100728.17;;;30.13;41.01
77537;BME280;67783;51.656;16.106;2023-07-29T13:59:18;100729.48;;;30.11;42.32
77537;BME280;67783;51.656;16.106;2023-07-29T14:05:57;100729.95;;;29.96;42.30
77537;BME280;67783;51.656;16.106;2023-07-29T14:12:36;100724.77;;;29.88;41.24
77537;BME280;67783;51.656;16.106;2023-07-29T14:15:44;100717.15;;;29.84;42.50
77537;BME280;67783;51.656;16.106;2023-07-29T14:18:47;100722.39;;;29.73;42.43
77537;BME280;67783;51.656;16.106;2023-07-29T14:22:15;100712.80;;;29.64;41.95
77537;BME280;67783;51.656;16.106;2023-07-29T14:25:15;100706.13;;;29.54;42.75
77537;BME280;67783;51.656;16.106;2023-07-29T14:28:17;100717.78;;;29.44;42.71
77537;BME280;67783;51.656;16.106;2023-07-29T14:31:32;100710.52;;;29.31;41.76
77537;BME280;67783;51.656;16.106;2023-07-29T14:34:42;100715.86;;;29.26;42.90
77537;BME280;67783;51.656;16.106;2023-07-29T14:37:46;100715.56;;;29.16;43.02
77537;BME280;67783;51.656;16.106;2023-07-29T14:40:56;100724.26;;;29.02;42.92
77537;BME280;67783;51.656;16.106;2023-07-29T14:44:09;100731.26;;;28.86;43.68
77537;BME280;67783;51.656;16.106;2023-07-29T14:47:16;100723.70;;;28.57;44.32
77537;BME280;67783;51.656;16.106;2023-07-29T14:50:27;100730.54;;;28.29;46.30
77537;BME280;67783;51.656;16.106;2023-07-29T14:53:43;100675.23;;;27.75;45.65
77537;BME280;67783;51.656;16.106;2023-07-29T14:57:05;100729.27;;;27.76;46.57
77537;BME280;67783;51.656;16.106;2023-07-29T15:03:51;100725.27;;;27.34;47.81
77537;BME280;67783;51.656;16.106;2023-07-29T15:07:11;100720.67;;;27.21;50.31
77537;BME280;67783;51.656;16.106;2023-07-29T15:10:50;100715.00;;;27.16;50.48
77537;BME280;67783;51.656;16.106;2023-07-29T15:14:16;100714.37;;;27.14;50.44
77537;BME280;67783;51.656;16.106;2023-07-29T15:17:45;100709.30;;;27.11;51.32
77537;BME280;67783;51.656;16.106;2023-07-29T15:21:00;100707.80;;;27.15;48.87
77537;BME280;67783;51.656;16.106;2023-07-29T15:24:08;100711.80;;;27.19;49.17
77537;BME280;67783;51.656;16.106;2023-07-29T15:27:19;100715.41;;;27.20;50.83
77537;BME280;67783;51.656;16.106;2023-07-29T15:30:26;100710.51;;;27.22;49.11
77537;BME280;67783;51.656;16.106;2023-07-29T15:33:31;100713.51;;;27.20;49.47
77537;BME280;67783;51.656;16.106;2023-07-29T15:36:39;100706.91;;;27.21;51.11
77537;BME280;67783;51.656;16.106;2023-07-29T15:39:41;100693.01;;;27.09;49.41
77537;BME280;67783;51.656;16.106;2023-07-29T15:42:50;100710.51;;;27.22;49.58
77537;BME280;67783;51.656;16.106;2023-07-29T15:49:03;100711.74;;;27.32;49.22
77537;BME280;67783;51.656;16.106;2023-07-29T15:52:08;100713.60;;;27.38;49.63
77537;BME280;67783;51.656;16.106;2023-07-29T15:55:15;100707.22;;;27.44;49.07
77537;BME280;67783;51.656;16.106;2023-07-29T15:58:20;100707.20;;;27.51;49.21
77537;BME280;67783;51.656;16.106;2023-07-29T16:01:36;100705.66;;;27.62;49.58
77537;BME280;67783;51.656;16.106;2023-07-29T16:04:44;100707.69;;;27.73;48.73
77537;BME280;67783;51.656;16.106;2023-07-29T16:07:46;100698.30;;;27.80;48.72
77537;BME280;67783;51.656;16.106;2023-07-29T16:10:48;100706.66;;;27.92;48.23
77537;BME280;67783;51.656;16.106;2023-07-29T16:13:53;100706.01;;;27.96;47.49
77537;BME280;67783;51.656;16.106;2023-07-29T16:16:58;100702.57;;;28.01;45.63
77537;BME280;67783;51.656;16.106;2023-07-29T16:20:02;100697.70;;;28.03;46.75
77537;BME280;67783;51.656;16.106;2023-07-29T16:23:07;100698.12;;;28.00;46.41
77537;BME280;67783;51.656;16.106;2023-07-29T16:26:27;100696.00;;;28.02;45.80
77537;BME280;67783;51.656;16.106;2023-07-29T16:29:32;100704.65;;;28.06;46.49
77537;BME280;67783;51.656;16.106;2023-07-29T16:32:33;100705.11;;;28.03;46.37
77537;BME280;67783;51.656;16.106;2023-07-29T16:35:35;100697.45;;;28.05;46.58